DLH24 EGLL-EDDF
Flight info
| Callsign | DLH24 |
|---|---|
| Flight time | 1h 11m |
| Altitude | 35000 |
| Route | DET L6 DVR UL9 KONAN UL607 SPI T180 NIVNU T847 IMCOM IMCOM1D |
| Aircraft | A339/H-SADE1E2E3GHIJ3J5M1P2RWXY/LB2D1 |
Departure
| Time | 2026-04-14 14:30 |
|---|---|
| Airport | London Heathrow Airport (EGLL) |
Arrival
| Time | 2026-04-14 15:42 |
|---|---|
| Airport | Frankfurt Main Airport (EDDF) |
| Time | Latitude | Longitude | Altitude | Speed | Heading |
|---|---|---|---|---|---|
| 2026-04-14 14:05 | 51.46936 | -0.44700 | 18 ft | 0 kts | 270° |
| 2026-04-14 14:13 | 51.46936 | -0.44682 | 18 ft | 2 kts | 270° |
| 2026-04-14 14:13 | 51.46936 | -0.44670 | 18 ft | 2 kts | 270° |
| 2026-04-14 14:13 | 51.46936 | -0.44649 | 18 ft | 2 kts | 270° |
| 2026-04-14 14:13 | 51.46936 | -0.44625 | 18 ft | 2 kts | 270° |
| 2026-04-14 14:14 | 51.46937 | -0.44610 | 18 ft | 2 kts | 270° |
| 2026-04-14 14:14 | 51.46939 | -0.44587 | 18 ft | 2 kts | 240° |
| 2026-04-14 14:14 | 51.46949 | -0.44568 | 18 ft | 2 kts | 216° |
| 2026-04-14 14:14 | 51.46962 | -0.44558 | 18 ft | 2 kts | 191° |
| 2026-04-14 14:15 | 51.46967 | -0.44556 | 18 ft | 1 kts | 182° |
| 2026-04-14 14:15 | 51.46968 | -0.44556 | 18 ft | 0 kts | 181° |
| 2026-04-14 14:16 | 51.46973 | -0.44556 | 18 ft | 0 kts | 179° |
| 2026-04-14 14:18 | 51.46969 | -0.44556 | 18 ft | 2 kts | 180° |
| 2026-04-14 14:18 | 51.46955 | -0.44556 | 18 ft | 5 kts | 180° |
| 2026-04-14 14:19 | 51.46906 | -0.44556 | 18 ft | 8 kts | 180° |
| 2026-04-14 14:19 | 51.46839 | -0.44555 | 18 ft | 10 kts | 180° |
| 2026-04-14 14:19 | 51.46762 | -0.44554 | 18 ft | 11 kts | 180° |
| 2026-04-14 14:19 | 51.46685 | -0.44571 | 18 ft | 10 kts | 221° |
| 2026-04-14 14:20 | 51.46663 | -0.44686 | 18 ft | 11 kts | 270° |
| 2026-04-14 14:20 | 51.46663 | -0.44820 | 18 ft | 12 kts | 270° |
| 2026-04-14 14:20 | 51.46663 | -0.44975 | 18 ft | 16 kts | 270° |
| 2026-04-14 14:20 | 51.46662 | -0.45175 | 18 ft | 20 kts | 270° |
| 2026-04-14 14:21 | 51.46661 | -0.45422 | 18 ft | 23 kts | 270° |
| 2026-04-14 14:21 | 51.46660 | -0.45690 | 18 ft | 23 kts | 270° |
| 2026-04-14 14:21 | 51.46659 | -0.45949 | 18 ft | 23 kts | 270° |
| 2026-04-14 14:21 | 51.46658 | -0.46206 | 18 ft | 22 kts | 270° |
| 2026-04-14 14:22 | 51.46657 | -0.46456 | 18 ft | 22 kts | 269° |
| 2026-04-14 14:22 | 51.46656 | -0.46703 | 18 ft | 22 kts | 270° |
| 2026-04-14 14:22 | 51.46656 | -0.46949 | 18 ft | 21 kts | 270° |
| 2026-04-14 14:22 | 51.46655 | -0.47188 | 18 ft | 21 kts | 270° |
| 2026-04-14 14:23 | 51.46654 | -0.47427 | 18 ft | 21 kts | 270° |
| 2026-04-14 14:23 | 51.46653 | -0.47662 | 18 ft | 21 kts | 270° |
| 2026-04-14 14:23 | 51.46653 | -0.47858 | 18 ft | 16 kts | 270° |
| 2026-04-14 14:23 | 51.46653 | -0.48029 | 18 ft | 13 kts | 270° |
| 2026-04-14 14:24 | 51.46652 | -0.48178 | 18 ft | 13 kts | 270° |
| 2026-04-14 14:24 | 51.46651 | -0.48328 | 18 ft | 11 kts | 270° |
| 2026-04-14 14:24 | 51.46651 | -0.48387 | 18 ft | 0 kts | 270° |
| 2026-04-14 14:25 | 51.46651 | -0.48389 | 18 ft | 0 kts | 270° |
| 2026-04-14 14:25 | 51.46651 | -0.48412 | 18 ft | 3 kts | 269° |
| 2026-04-14 14:26 | 51.46642 | -0.48448 | 18 ft | 3 kts | 227° |
| 2026-04-14 14:26 | 51.46608 | -0.48465 | 18 ft | 4 kts | 186° |
| 2026-04-14 14:26 | 51.46606 | -0.48466 | 18 ft | 0 kts | 183° |
| 2026-04-14 14:27 | 51.46596 | -0.48466 | 18 ft | 2 kts | 183° |
| 2026-04-14 14:27 | 51.46573 | -0.48468 | 18 ft | 4 kts | 182° |
| 2026-04-14 14:28 | 51.46538 | -0.48469 | 18 ft | 6 kts | 181° |
| 2026-04-14 14:28 | 51.46493 | -0.48462 | 18 ft | 6 kts | 155° |
| 2026-04-14 14:28 | 51.46478 | -0.48402 | 18 ft | 0 kts | 89° |
| 2026-04-14 14:29 | 51.46479 | -0.48130 | 18 ft | 59 kts | 90° |
| 2026-04-14 14:29 | 51.46482 | -0.47099 | 18 ft | 123 kts | 90° |
| 2026-04-14 14:30 | 51.46492 | -0.45421 | 64 ft | 171 kts | 93° |
| 2026-04-14 14:30 | 51.46519 | -0.43562 | 739 ft | 166 kts | 93° |
| 2026-04-14 14:30 | 51.46521 | -0.41783 | 1482 ft | 157 kts | 111° |
| 2026-04-14 14:30 | 51.45978 | -0.40414 | 2033 ft | 150 kts | 150° |
| 2026-04-14 14:31 | 51.44974 | -0.39869 | 2430 ft | 162 kts | 182° |
| 2026-04-14 14:31 | 51.43864 | -0.40447 | 2809 ft | 182 kts | 217° |
| 2026-04-14 14:31 | 51.43034 | -0.42120 | 3193 ft | 204 kts | 232° |
| 2026-04-14 14:31 | 51.42205 | -0.44087 | 3646 ft | 222 kts | 232° |
| 2026-04-14 14:32 | 51.41308 | -0.46200 | 4108 ft | 241 kts | 233° |
| 2026-04-14 14:32 | 51.40561 | -0.48673 | 4655 ft | 260 kts | 256° |
| 2026-04-14 14:32 | 51.40592 | -0.51593 | 5386 ft | 268 kts | 277° |
| 2026-04-14 14:32 | 51.40994 | -0.54488 | 5819 ft | 269 kts | 281° |
| 2026-04-14 14:33 | 51.41447 | -0.57396 | 5970 ft | 269 kts | 280° |
| 2026-04-14 14:33 | 51.41911 | -0.60269 | 5979 ft | 272 kts | 287° |
| 2026-04-14 14:33 | 51.43070 | -0.62721 | 6284 ft | 293 kts | 323° |
| 2026-04-14 14:33 | 51.45005 | -0.63750 | 7204 ft | 297 kts | 357° |
| 2026-04-14 14:34 | 51.48590 | -0.61076 | 8828 ft | 299 kts | 56° |
| 2026-04-14 14:34 | 51.49382 | -0.58083 | 9566 ft | 297 kts | 85° |
| 2026-04-14 14:34 | 51.49222 | -0.54837 | 10333 ft | 293 kts | 106° |
| 2026-04-14 14:35 | 51.48738 | -0.51581 | 10822 ft | 306 kts | 106° |
| 2026-04-14 14:35 | 51.48252 | -0.48214 | 11159 ft | 324 kts | 105° |
| 2026-04-14 14:35 | 51.47751 | -0.44619 | 11633 ft | 336 kts | 104° |
| 2026-04-14 14:35 | 51.47249 | -0.40907 | 12345 ft | 341 kts | 104° |
| 2026-04-14 14:36 | 51.46759 | -0.37227 | 13053 ft | 345 kts | 103° |
| 2026-04-14 14:36 | 51.46257 | -0.33437 | 13742 ft | 349 kts | 103° |
| 2026-04-14 14:36 | 51.45755 | -0.29636 | 14415 ft | 354 kts | 103° |
| 2026-04-14 14:36 | 51.45244 | -0.25770 | 15083 ft | 359 kts | 103° |
| 2026-04-14 14:37 | 51.44723 | -0.21840 | 15786 ft | 363 kts | 103° |
| 2026-04-14 14:37 | 51.44204 | -0.17925 | 16470 ft | 366 kts | 102° |
| 2026-04-14 14:37 | 51.43676 | -0.13952 | 17151 ft | 370 kts | 102° |
| 2026-04-14 14:37 | 51.43135 | -0.09880 | 17805 ft | 374 kts | 102° |
| 2026-04-14 14:38 | 51.42592 | -0.05826 | 18454 ft | 378 kts | 102° |
| 2026-04-14 14:38 | 51.42041 | -0.01714 | 19047 ft | 383 kts | 102° |
| 2026-04-14 14:38 | 51.41479 | 0.02468 | 19657 ft | 388 kts | 101° |
| 2026-04-14 14:38 | 51.40909 | 0.06689 | 20249 ft | 392 kts | 101° |
| 2026-04-14 14:39 | 51.40328 | 0.10982 | 20796 ft | 398 kts | 101° |
| 2026-04-14 14:39 | 51.39740 | 0.15316 | 21321 ft | 403 kts | 101° |
| 2026-04-14 14:39 | 51.39142 | 0.19720 | 21866 ft | 408 kts | 100° |
| 2026-04-14 14:39 | 51.38537 | 0.24156 | 22446 ft | 410 kts | 100° |
| 2026-04-14 14:40 | 51.37934 | 0.28570 | 23030 ft | 413 kts | 99° |
| 2026-04-14 14:40 | 51.37320 | 0.33037 | 23546 ft | 416 kts | 99° |
| 2026-04-14 14:40 | 51.36699 | 0.37556 | 24061 ft | 420 kts | 99° |
| 2026-04-14 14:40 | 51.36064 | 0.42170 | 24561 ft | 424 kts | 99° |
| 2026-04-14 14:41 | 51.35426 | 0.46780 | 25047 ft | 428 kts | 99° |
| 2026-04-14 14:41 | 51.34786 | 0.51379 | 25539 ft | 431 kts | 99° |
| 2026-04-14 14:41 | 51.34131 | 0.56080 | 26021 ft | 435 kts | 98° |
| 2026-04-14 14:41 | 51.33471 | 0.60802 | 26518 ft | 437 kts | 98° |
| 2026-04-14 14:42 | 51.32803 | 0.65555 | 27002 ft | 440 kts | 99° |
| 2026-04-14 14:42 | 51.32133 | 0.70325 | 27432 ft | 443 kts | 99° |
| 2026-04-14 14:42 | 51.31455 | 0.75134 | 27862 ft | 446 kts | 99° |
| 2026-04-14 14:42 | 51.30774 | 0.79949 | 28289 ft | 449 kts | 98° |
| 2026-04-14 14:43 | 51.30080 | 0.84829 | 28727 ft | 451 kts | 98° |
| 2026-04-14 14:43 | 51.29384 | 0.89709 | 29124 ft | 455 kts | 98° |
| 2026-04-14 14:43 | 51.28685 | 0.94593 | 29489 ft | 458 kts | 98° |
| 2026-04-14 14:43 | 51.27969 | 0.99582 | 29881 ft | 461 kts | 98° |
| 2026-04-14 14:44 | 51.27253 | 1.04570 | 30248 ft | 464 kts | 98° |
| 2026-04-14 14:44 | 51.26527 | 1.09612 | 30594 ft | 467 kts | 98° |
| 2026-04-14 14:44 | 51.25795 | 1.14658 | 30936 ft | 470 kts | 97° |
| 2026-04-14 14:44 | 51.25062 | 1.19705 | 31293 ft | 472 kts | 97° |
| 2026-04-14 14:45 | 51.24317 | 1.24810 | 31719 ft | 473 kts | 97° |
| 2026-04-14 14:45 | 51.23575 | 1.29872 | 32161 ft | 472 kts | 97° |
| 2026-04-14 14:45 | 51.22830 | 1.34939 | 32621 ft | 471 kts | 97° |
| 2026-04-14 14:45 | 51.22088 | 1.39983 | 33022 ft | 471 kts | 97° |
| 2026-04-14 14:46 | 51.21334 | 1.45085 | 33412 ft | 471 kts | 97° |
| 2026-04-14 14:46 | 51.20587 | 1.50120 | 33785 ft | 471 kts | 97° |
| 2026-04-14 14:46 | 51.19833 | 1.55194 | 34120 ft | 472 kts | 97° |
| 2026-04-14 14:46 | 51.19074 | 1.60291 | 34463 ft | 473 kts | 96° |
| 2026-04-14 14:47 | 51.18315 | 1.65376 | 34787 ft | 474 kts | 97° |
| 2026-04-14 14:47 | 51.17549 | 1.70489 | 35058 ft | 476 kts | 97° |
| 2026-04-14 14:47 | 51.16778 | 1.75612 | 35159 ft | 478 kts | 97° |
| 2026-04-14 14:48 | 51.15228 | 1.85846 | 35165 ft | 477 kts | 97° |
| 2026-04-14 14:48 | 51.13694 | 1.96043 | 35168 ft | 474 kts | 95° |
| 2026-04-14 14:49 | 51.12698 | 2.06330 | 35173 ft | 469 kts | 88° |
| 2026-04-14 14:49 | 51.12154 | 2.16575 | 35174 ft | 467 kts | 87° |
| 2026-04-14 14:50 | 51.11621 | 2.26793 | 35175 ft | 466 kts | 87° |
| 2026-04-14 14:50 | 51.11063 | 2.37039 | 35183 ft | 465 kts | 87° |
| 2026-04-14 14:51 | 51.10492 | 2.47268 | 35183 ft | 466 kts | 87° |
| 2026-04-14 14:51 | 51.09909 | 2.57456 | 35183 ft | 464 kts | 87° |
| 2026-04-14 14:52 | 51.08932 | 2.67599 | 35191 ft | 471 kts | 95° |
| 2026-04-14 14:52 | 51.07221 | 2.77763 | 35188 ft | 476 kts | 99° |
| 2026-04-14 14:53 | 51.05376 | 2.87776 | 35196 ft | 475 kts | 99° |
| 2026-04-14 14:53 | 51.03529 | 2.97823 | 35194 ft | 475 kts | 99° |
| 2026-04-14 14:54 | 51.01681 | 3.07884 | 35193 ft | 475 kts | 99° |
| 2026-04-14 14:54 | 50.99833 | 3.17904 | 35194 ft | 475 kts | 99° |
| 2026-04-14 14:55 | 50.97980 | 3.27895 | 35193 ft | 474 kts | 99° |
| 2026-04-14 14:55 | 50.96123 | 3.37865 | 35192 ft | 474 kts | 100° |
| 2026-04-14 14:56 | 50.93309 | 3.52846 | 35189 ft | 471 kts | 100° |
| 2026-04-14 14:56 | 50.91433 | 3.62755 | 35192 ft | 471 kts | 100° |
| 2026-04-14 14:57 | 50.89543 | 3.72641 | 35190 ft | 470 kts | 102° |
| 2026-04-14 14:57 | 50.87626 | 3.82561 | 35197 ft | 470 kts | 102° |
| 2026-04-14 14:58 | 50.85715 | 3.92385 | 35194 ft | 469 kts | 102° |
| 2026-04-14 14:58 | 50.83800 | 4.02193 | 35189 ft | 469 kts | 102° |
| 2026-04-14 14:59 | 50.81874 | 4.12011 | 35190 ft | 469 kts | 102° |
| 2026-04-14 14:59 | 50.79927 | 4.21877 | 35193 ft | 468 kts | 102° |
| 2026-04-14 15:00 | 50.77986 | 4.31676 | 35191 ft | 468 kts | 102° |
| 2026-04-14 15:00 | 50.76046 | 4.41428 | 35194 ft | 467 kts | 102° |
| 2026-04-14 15:01 | 50.74097 | 4.51169 | 35192 ft | 468 kts | 102° |
| 2026-04-14 15:01 | 50.72131 | 4.60936 | 35198 ft | 467 kts | 102° |
| 2026-04-14 15:02 | 50.70240 | 4.70680 | 34967 ft | 466 kts | 102° |
| 2026-04-14 15:02 | 50.69301 | 4.75557 | 34750 ft | 464 kts | 102° |
| 2026-04-14 15:02 | 50.68368 | 4.80370 | 34535 ft | 463 kts | 102° |
| 2026-04-14 15:03 | 50.67429 | 4.85189 | 34304 ft | 461 kts | 102° |
| 2026-04-14 15:03 | 50.66476 | 4.90052 | 34050 ft | 459 kts | 102° |
| 2026-04-14 15:03 | 50.65526 | 4.94836 | 33800 ft | 459 kts | 103° |
| 2026-04-14 15:03 | 50.64562 | 4.99549 | 33553 ft | 459 kts | 103° |
| 2026-04-14 15:04 | 50.63566 | 5.04366 | 33301 ft | 459 kts | 103° |
| 2026-04-14 15:04 | 50.62582 | 5.09123 | 33052 ft | 459 kts | 103° |
| 2026-04-14 15:04 | 50.61603 | 5.13855 | 32802 ft | 460 kts | 103° |
| 2026-04-14 15:04 | 50.60607 | 5.18656 | 32552 ft | 459 kts | 103° |
| 2026-04-14 15:05 | 50.59628 | 5.23381 | 32307 ft | 459 kts | 103° |
| 2026-04-14 15:05 | 50.58633 | 5.28172 | 32056 ft | 459 kts | 103° |
| 2026-04-14 15:05 | 50.57646 | 5.32910 | 31809 ft | 459 kts | 103° |
| 2026-04-14 15:05 | 50.56656 | 5.37657 | 31560 ft | 459 kts | 103° |
| 2026-04-14 15:06 | 50.55664 | 5.42397 | 31312 ft | 458 kts | 103° |
| 2026-04-14 15:06 | 50.54659 | 5.47184 | 31060 ft | 456 kts | 102° |
| 2026-04-14 15:06 | 50.53677 | 5.51860 | 30811 ft | 454 kts | 102° |
| 2026-04-14 15:06 | 50.52693 | 5.56523 | 30566 ft | 452 kts | 102° |
| 2026-04-14 15:07 | 50.51701 | 5.61220 | 30336 ft | 449 kts | 102° |
| 2026-04-14 15:07 | 50.50808 | 5.65822 | 30120 ft | 446 kts | 101° |
| 2026-04-14 15:07 | 50.49933 | 5.70510 | 29892 ft | 444 kts | 101° |
| 2026-04-14 15:07 | 50.49065 | 5.75171 | 29615 ft | 441 kts | 101° |
| 2026-04-14 15:08 | 50.48215 | 5.79728 | 29321 ft | 439 kts | 101° |
| 2026-04-14 15:08 | 50.47364 | 5.84280 | 28989 ft | 437 kts | 101° |
| 2026-04-14 15:08 | 50.46508 | 5.88840 | 28629 ft | 434 kts | 101° |
| 2026-04-14 15:08 | 50.45660 | 5.93337 | 28295 ft | 431 kts | 101° |
| 2026-04-14 15:09 | 50.44808 | 5.97849 | 27972 ft | 428 kts | 101° |
| 2026-04-14 15:09 | 50.43970 | 6.02280 | 27647 ft | 425 kts | 102° |
| 2026-04-14 15:09 | 50.43130 | 6.06709 | 27310 ft | 422 kts | 102° |
| 2026-04-14 15:09 | 50.42302 | 6.11059 | 26977 ft | 419 kts | 102° |
| 2026-04-14 15:10 | 50.41474 | 6.15403 | 26641 ft | 416 kts | 102° |
| 2026-04-14 15:10 | 50.40643 | 6.19751 | 26303 ft | 414 kts | 102° |
| 2026-04-14 15:10 | 50.39822 | 6.24029 | 25981 ft | 411 kts | 103° |
| 2026-04-14 15:10 | 50.39001 | 6.28304 | 25649 ft | 409 kts | 103° |
| 2026-04-14 15:11 | 50.38189 | 6.32511 | 25325 ft | 406 kts | 103° |
| 2026-04-14 15:11 | 50.37377 | 6.36721 | 24983 ft | 404 kts | 103° |
| 2026-04-14 15:11 | 50.36678 | 6.40921 | 24650 ft | 399 kts | 99° |
| 2026-04-14 15:11 | 50.36190 | 6.45189 | 24307 ft | 395 kts | 94° |
| 2026-04-14 15:12 | 50.35901 | 6.49411 | 23982 ft | 391 kts | 92° |
| 2026-04-14 15:12 | 50.35649 | 6.53639 | 23645 ft | 389 kts | 92° |
| 2026-04-14 15:12 | 50.35392 | 6.57866 | 23303 ft | 387 kts | 92° |
| 2026-04-14 15:12 | 50.35136 | 6.61989 | 22968 ft | 385 kts | 92° |
| 2026-04-14 15:13 | 50.34879 | 6.66009 | 22637 ft | 382 kts | 93° |
| 2026-04-14 15:13 | 50.34615 | 6.70134 | 22299 ft | 380 kts | 94° |
| 2026-04-14 15:13 | 50.34354 | 6.74177 | 21967 ft | 378 kts | 94° |
| 2026-04-14 15:13 | 50.34096 | 6.78262 | 21640 ft | 375 kts | 94° |
| 2026-04-14 15:14 | 50.33836 | 6.82327 | 21309 ft | 373 kts | 96° |
| 2026-04-14 15:14 | 50.33334 | 6.86249 | 21179 ft | 367 kts | 104° |
| 2026-04-14 15:14 | 50.32502 | 6.90005 | 20931 ft | 368 kts | 111° |
| 2026-04-14 15:14 | 50.31445 | 6.93666 | 20344 ft | 373 kts | 114° |
| 2026-04-14 15:15 | 50.30331 | 6.97323 | 19895 ft | 373 kts | 114° |
| 2026-04-14 15:15 | 50.29218 | 7.00972 | 19525 ft | 371 kts | 114° |
| 2026-04-14 15:15 | 50.28128 | 7.04591 | 19161 ft | 368 kts | 114° |
| 2026-04-14 15:15 | 50.27036 | 7.08233 | 18781 ft | 366 kts | 114° |
| 2026-04-14 15:16 | 50.25972 | 7.11784 | 18405 ft | 365 kts | 114° |
| 2026-04-14 15:16 | 50.24902 | 7.15355 | 18044 ft | 362 kts | 114° |
| 2026-04-14 15:16 | 50.23833 | 7.18921 | 17692 ft | 360 kts | 114° |
| 2026-04-14 15:16 | 50.22786 | 7.22412 | 17364 ft | 357 kts | 114° |
| 2026-04-14 15:17 | 50.21748 | 7.25859 | 17014 ft | 354 kts | 114° |
| 2026-04-14 15:17 | 50.20694 | 7.29356 | 16656 ft | 352 kts | 114° |
| 2026-04-14 15:17 | 50.19680 | 7.32807 | 16305 ft | 350 kts | 111° |
| 2026-04-14 15:17 | 50.18808 | 7.36294 | 15963 ft | 347 kts | 109° |
| 2026-04-14 15:18 | 50.17966 | 7.39824 | 15633 ft | 345 kts | 108° |
| 2026-04-14 15:18 | 50.17141 | 7.43302 | 15282 ft | 343 kts | 108° |
| 2026-04-14 15:18 | 50.16654 | 7.45355 | 15086 ft | 341 kts | 108° |
| 2026-04-14 15:18 | 50.15830 | 7.48812 | 14757 ft | 339 kts | 108° |
| 2026-04-14 15:19 | 50.15017 | 7.52220 | 14400 ft | 338 kts | 108° |
| 2026-04-14 15:19 | 50.14200 | 7.55628 | 14068 ft | 336 kts | 108° |
| 2026-04-14 15:19 | 50.13387 | 7.59015 | 13735 ft | 334 kts | 108° |
| 2026-04-14 15:19 | 50.12582 | 7.62361 | 13410 ft | 332 kts | 108° |
| 2026-04-14 15:20 | 50.11776 | 7.65709 | 13085 ft | 330 kts | 109° |
| 2026-04-14 15:20 | 50.10998 | 7.69090 | 12755 ft | 328 kts | 106° |
| 2026-04-14 15:20 | 50.10331 | 7.72467 | 12432 ft | 326 kts | 105° |
| 2026-04-14 15:20 | 50.09689 | 7.75784 | 12190 ft | 322 kts | 106° |
| 2026-04-14 15:21 | 50.09040 | 7.79134 | 12162 ft | 323 kts | 106° |
| 2026-04-14 15:21 | 50.08391 | 7.82487 | 12157 ft | 324 kts | 105° |
| 2026-04-14 15:21 | 50.08089 | 7.85901 | 12143 ft | 322 kts | 86° |
| 2026-04-14 15:21 | 50.08538 | 7.89282 | 12151 ft | 321 kts | 69° |
| 2026-04-14 15:22 | 50.09334 | 7.92518 | 12157 ft | 321 kts | 67° |
| 2026-04-14 15:22 | 50.10161 | 7.95768 | 12158 ft | 321 kts | 67° |
| 2026-04-14 15:22 | 50.10974 | 7.98985 | 12160 ft | 321 kts | 68° |
| 2026-04-14 15:22 | 50.11790 | 8.02256 | 12164 ft | 321 kts | 68° |
| 2026-04-14 15:23 | 50.12592 | 8.05505 | 12166 ft | 322 kts | 68° |
| 2026-04-14 15:23 | 50.13384 | 8.08740 | 12165 ft | 322 kts | 68° |
| 2026-04-14 15:23 | 50.14178 | 8.11995 | 12163 ft | 322 kts | 68° |
| 2026-04-14 15:23 | 50.14961 | 8.15218 | 12159 ft | 313 kts | 68° |
| 2026-04-14 15:24 | 50.15719 | 8.18343 | 12034 ft | 305 kts | 68° |
| 2026-04-14 15:24 | 50.16461 | 8.21404 | 11910 ft | 297 kts | 68° |
| 2026-04-14 15:24 | 50.17171 | 8.24341 | 11798 ft | 290 kts | 68° |
| 2026-04-14 15:24 | 50.17876 | 8.27258 | 11694 ft | 282 kts | 68° |
| 2026-04-14 15:25 | 50.18553 | 8.30065 | 11571 ft | 276 kts | 68° |
| 2026-04-14 15:25 | 50.19173 | 8.32907 | 11335 ft | 275 kts | 79° |
| 2026-04-14 15:25 | 50.19178 | 8.35860 | 11073 ft | 274 kts | 102° |
| 2026-04-14 15:25 | 50.18467 | 8.38597 | 10817 ft | 273 kts | 124° |
| 2026-04-14 15:26 | 50.17176 | 8.40711 | 10577 ft | 271 kts | 146° |
| 2026-04-14 15:26 | 50.15521 | 8.41959 | 10307 ft | 265 kts | 167° |
| 2026-04-14 15:26 | 50.13705 | 8.42189 | 10046 ft | 255 kts | 189° |
| 2026-04-14 15:26 | 50.12069 | 8.41435 | 9874 ft | 244 kts | 208° |
| 2026-04-14 15:27 | 50.10713 | 8.39968 | 9733 ft | 235 kts | 226° |
| 2026-04-14 15:27 | 50.09752 | 8.37973 | 9592 ft | 227 kts | 244° |
| 2026-04-14 15:27 | 50.09152 | 8.35722 | 9395 ft | 224 kts | 250° |
| 2026-04-14 15:27 | 50.08620 | 8.33449 | 9144 ft | 224 kts | 250° |
| 2026-04-14 15:28 | 50.08088 | 8.31169 | 8875 ft | 224 kts | 250° |
| 2026-04-14 15:28 | 50.07552 | 8.28901 | 8619 ft | 225 kts | 250° |
| 2026-04-14 15:28 | 50.07002 | 8.26605 | 8366 ft | 225 kts | 250° |
| 2026-04-14 15:28 | 50.06455 | 8.24334 | 8126 ft | 225 kts | 250° |
| 2026-04-14 15:29 | 50.05904 | 8.22063 | 7872 ft | 225 kts | 250° |
| 2026-04-14 15:29 | 50.05350 | 8.19794 | 7582 ft | 225 kts | 250° |
| 2026-04-14 15:29 | 50.04800 | 8.17541 | 7264 ft | 225 kts | 250° |
| 2026-04-14 15:29 | 50.04245 | 8.15267 | 6957 ft | 225 kts | 250° |
| 2026-04-14 15:30 | 50.03686 | 8.12983 | 6519 ft | 235 kts | 251° |
| 2026-04-14 15:30 | 50.03091 | 8.10547 | 6051 ft | 245 kts | 251° |
| 2026-04-14 15:30 | 50.02488 | 8.08074 | 5778 ft | 244 kts | 251° |
| 2026-04-14 15:30 | 50.01891 | 8.05627 | 5538 ft | 243 kts | 251° |
| 2026-04-14 15:31 | 50.01296 | 8.03185 | 5288 ft | 243 kts | 251° |
| 2026-04-14 15:31 | 50.00699 | 8.00736 | 5050 ft | 241 kts | 251° |
| 2026-04-14 15:31 | 50.00105 | 7.98311 | 4986 ft | 240 kts | 250° |
| 2026-04-14 15:31 | 49.99517 | 7.95909 | 4987 ft | 241 kts | 250° |
| 2026-04-14 15:32 | 49.98920 | 7.93478 | 4983 ft | 241 kts | 250° |
| 2026-04-14 15:32 | 49.98324 | 7.91054 | 4982 ft | 241 kts | 250° |
| 2026-04-14 15:32 | 49.97718 | 7.88603 | 4981 ft | 241 kts | 249° |
| 2026-04-14 15:32 | 49.96818 | 7.86462 | 4960 ft | 243 kts | 220° |
| 2026-04-14 15:33 | 49.95302 | 7.85296 | 4971 ft | 244 kts | 188° |
| 2026-04-14 15:33 | 49.93658 | 7.85492 | 4974 ft | 241 kts | 156° |
| 2026-04-14 15:33 | 49.92324 | 7.86963 | 4976 ft | 235 kts | 124° |
| 2026-04-14 15:33 | 49.91591 | 7.89215 | 4988 ft | 232 kts | 107° |
| 2026-04-14 15:34 | 49.91161 | 7.91606 | 4973 ft | 230 kts | 94° |
| 2026-04-14 15:34 | 49.91077 | 7.94069 | 4977 ft | 229 kts | 89° |
| 2026-04-14 15:34 | 49.91116 | 7.96536 | 4969 ft | 228 kts | 82° |
| 2026-04-14 15:34 | 49.91423 | 7.98931 | 4971 ft | 227 kts | 72° |
| 2026-04-14 15:35 | 49.91986 | 8.01216 | 4975 ft | 226 kts | 65° |
| 2026-04-14 15:35 | 49.92622 | 8.03447 | 4977 ft | 226 kts | 65° |
| 2026-04-14 15:35 | 49.93235 | 8.05676 | 4978 ft | 226 kts | 66° |
| 2026-04-14 15:35 | 49.93825 | 8.07945 | 4975 ft | 226 kts | 67° |
| 2026-04-14 15:36 | 49.94383 | 8.10204 | 4977 ft | 226 kts | 68° |
| 2026-04-14 15:36 | 49.94930 | 8.12495 | 4976 ft | 225 kts | 68° |
| 2026-04-14 15:36 | 49.95456 | 8.14740 | 4971 ft | 217 kts | 68° |
| 2026-04-14 15:36 | 49.95955 | 8.16894 | 4897 ft | 209 kts | 68° |
| 2026-04-14 15:37 | 49.96446 | 8.19009 | 4645 ft | 209 kts | 68° |
| 2026-04-14 15:37 | 49.96939 | 8.21130 | 4333 ft | 209 kts | 68° |
| 2026-04-14 15:37 | 49.97430 | 8.23234 | 4021 ft | 205 kts | 68° |
| 2026-04-14 15:37 | 49.97905 | 8.25264 | 3746 ft | 199 kts | 68° |
| 2026-04-14 15:38 | 49.98376 | 8.27266 | 3492 ft | 196 kts | 68° |
| 2026-04-14 15:38 | 49.98838 | 8.29229 | 3227 ft | 191 kts | 68° |
| 2026-04-14 15:38 | 49.99292 | 8.31148 | 2998 ft | 188 kts | 68° |
| 2026-04-14 15:38 | 49.99741 | 8.33045 | 2723 ft | 187 kts | 68° |
| 2026-04-14 15:39 | 50.00189 | 8.34935 | 2454 ft | 185 kts | 68° |
| 2026-04-14 15:39 | 50.00624 | 8.36770 | 2175 ft | 180 kts | 68° |
| 2026-04-14 15:39 | 50.01052 | 8.38571 | 1920 ft | 174 kts | 68° |
| 2026-04-14 15:39 | 50.01460 | 8.40288 | 1671 ft | 168 kts | 67° |
| 2026-04-14 15:40 | 50.01858 | 8.41961 | 1441 ft | 162 kts | 67° |
| 2026-04-14 15:40 | 50.02227 | 8.43544 | 1259 ft | 154 kts | 67° |
| 2026-04-14 15:40 | 50.02599 | 8.45093 | 1015 ft | 150 kts | 69° |
| 2026-04-14 15:40 | 50.02956 | 8.46588 | 804 ft | 144 kts | 69° |
| 2026-04-14 15:41 | 50.03308 | 8.48030 | 616 ft | 143 kts | 68° |
| 2026-04-14 15:41 | 50.03651 | 8.49485 | 411 ft | 142 kts | 67° |
| 2026-04-14 15:41 | 50.03986 | 8.50871 | 364 ft | 122 kts | 71° |
| 2026-04-14 15:41 | 50.04235 | 8.51918 | 367 ft | 79 kts | 69° |
| 2026-04-14 15:42 | 50.04376 | 8.52516 | 374 ft | 30 kts | 71° |
| 2026-04-14 15:42 | 50.04392 | 8.52807 | 371 ft | 24 kts | 97° |
| 2026-04-14 15:42 | 50.04364 | 8.53080 | 362 ft | 26 kts | 99° |
| 2026-04-14 15:42 | 50.04358 | 8.53329 | 360 ft | 19 kts | 73° |
| 2026-04-14 15:43 | 50.04396 | 8.53528 | 360 ft | 18 kts | 81° |
| 2026-04-14 15:43 | 50.04411 | 8.53726 | 361 ft | 18 kts | 83° |
| 2026-04-14 15:43 | 50.04424 | 8.53922 | 363 ft | 17 kts | 84° |
| 2026-04-14 15:43 | 50.04436 | 8.54111 | 363 ft | 17 kts | 84° |
| 2026-04-14 15:44 | 50.04448 | 8.54300 | 363 ft | 17 kts | 83° |
| 2026-04-14 15:44 | 50.04448 | 8.54495 | 362 ft | 18 kts | 99° |
| 2026-04-14 15:44 | 50.04391 | 8.54676 | 361 ft | 18 kts | 131° |
| 2026-04-14 15:44 | 50.04320 | 8.54764 | 360 ft | 13 kts | 151° |
| 2026-04-14 15:45 | 50.04231 | 8.54818 | 360 ft | 14 kts | 160° |
| 2026-04-14 15:45 | 50.04137 | 8.54871 | 359 ft | 12 kts | 159° |
| 2026-04-14 15:45 | 50.04108 | 8.54888 | 359 ft | 0 kts | 158° |
| 2026-04-14 15:45 | 50.04091 | 8.54898 | 358 ft | 4 kts | 158° |
| 2026-04-14 15:46 | 50.04050 | 8.54923 | 358 ft | 8 kts | 158° |
| 2026-04-14 15:46 | 50.04028 | 8.54937 | 357 ft | 0 kts | 155° |
| 2026-04-14 15:46 | 50.04023 | 8.54941 | 357 ft | 2 kts | 145° |
| 2026-04-14 15:46 | 50.04015 | 8.54988 | 357 ft | 6 kts | 83° |
| 2026-04-14 15:47 | 50.04030 | 8.55063 | 359 ft | 7 kts | 70° |
| 2026-04-14 15:47 | 50.04046 | 8.55132 | 361 ft | 6 kts | 69° |
| 2026-04-14 15:47 | 50.04064 | 8.55208 | 362 ft | 10 kts | 69° |
| 2026-04-14 15:47 | 50.04096 | 8.55342 | 364 ft | 16 kts | 69° |
| 2026-04-14 15:48 | 50.04141 | 8.55530 | 365 ft | 20 kts | 69° |
| 2026-04-14 15:48 | 50.04192 | 8.55740 | 364 ft | 21 kts | 69° |
| 2026-04-14 15:48 | 50.04242 | 8.55948 | 366 ft | 19 kts | 69° |
| 2026-04-14 15:48 | 50.04288 | 8.56138 | 369 ft | 18 kts | 69° |
| 2026-04-14 15:49 | 50.04331 | 8.56322 | 370 ft | 18 kts | 69° |
| 2026-04-14 15:49 | 50.04374 | 8.56501 | 374 ft | 16 kts | 69° |
| 2026-04-14 15:49 | 50.04414 | 8.56670 | 375 ft | 16 kts | 69° |
| 2026-04-14 15:49 | 50.04452 | 8.56825 | 378 ft | 14 kts | 69° |
| 2026-04-14 15:50 | 50.04485 | 8.56936 | 379 ft | 6 kts | 40° |
| 2026-04-14 15:50 | 50.04496 | 8.56947 | 379 ft | 1 kts | 32° |
| 2026-04-14 15:50 | 50.04508 | 8.56959 | 380 ft | 2 kts | 34° |
| 2026-04-14 15:50 | 50.04514 | 8.56979 | 380 ft | 3 kts | 74° |
| 2026-04-14 15:51 | 50.04522 | 8.57036 | 380 ft | 9 kts | 79° |
| 2026-04-14 15:51 | 50.04541 | 8.57186 | 380 ft | 18 kts | 76° |
| 2026-04-14 15:51 | 50.04594 | 8.57357 | 381 ft | 17 kts | 30° |
| 2026-04-14 15:51 | 50.04692 | 8.57367 | 383 ft | 5 kts | 327° |
| 2026-04-14 15:52 | 50.04705 | 8.57328 | 384 ft | 3 kts | 285° |
| 2026-04-14 15:52 | 50.04709 | 8.57294 | 384 ft | 1 kts | 278° |
| 2026-04-14 15:52 | 50.04709 | 8.57290 | 384 ft | 0 kts | 278° |